Jacksons Gap, Alabama
Current Conditions -  °F | °C
As of 9:15 AM on Thursday 23 Oct 2014 (Local Time) from KALX Reporting Station
Clear Clear  
Wind Chill: 55°   Ceiling: Unl
Heat Index: 55°   Visibility: 10mi
Dew Point: 45°   Wind: 3mph
Humidity: 69%   Direction: 100°E
Pressure: 30.15"   Gusts: NA
Location:  32.89°N, 85.81°W
Report Text: KALX 231415Z AUTO 10003KT 10SM CLR 13/07 A3015 RMK AO2 T01270071
Loading
Personal Weather Stations






























Interactive Weather Map
Tropical Storm Tracking
New forecast layout! Learn more

10-Day Weather Forecast

Advertisements
Track Severe Weather on mobile